-JavaCPC -demo -emu -j-cpc_ani -tools 0-9 A B C D E F G H I J K L M N O P Q R S T U V W X Y Z roms
FILEDATESIZEDLs
KTris by Richard Wilson (PD).zip 2017-04-21 16:14 2 Kb99
Kaiser (G) (19xx).zip 2017-04-21 16:13 91 Kb117
Kane & Nebulus & Renaud - Marche a l'Ombre.zip 2017-04-21 16:13 95 Kb57
Kane (UK) (1986).zip 2017-04-21 16:13 28 Kb87
Kane (UK) (1986) [a1].zip 2017-04-21 16:13 80 Kb101
Kane (UK) (1986) [a2].zip 2017-04-21 16:13 38 Kb88
Kane (UK) (1986) [t1].zip 2017-04-21 16:13 38 Kb99
Karateka (F) (1986).zip 2017-04-21 16:13 50 Kb96
Karateka (F) (1986) [f1].zip 2017-04-21 16:13 50 Kb95
Karateka (F) (1986) [t1].zip 2017-04-21 16:13 50 Kb92
Karateka (F) (1990).zip 2017-04-21 16:13 49 Kb95
Karateka (F) (1990) [t1].zip 2017-04-21 16:13 49 Kb91
Karateka (F).dsk 2017-04-21 16:13 192 Kb104
Karl's Treasure Hunt (UK) (1984).zip 2017-04-21 16:13 11 Kb94
Karl's Treasure Hunt (UK) (1984) [a1].zip 2017-04-21 16:13 84 Kb92
Karl's Treasure Hunt (UK) (1984) [a2].zip 2017-04-21 16:13 11 Kb89
Karnov (E) - Disk 1A.dsk 2017-04-21 16:13 214 Kb92
Karnov (E) - Disk 1B.dsk 2017-04-21 16:13 214 Kb92
Karnov (UK) (1988) (Disk 1 of 2).zip 2017-04-21 16:13 73 Kb89
Karnov (UK) (1988) (Disk 1 of 2) [a1].zip 2017-04-21 16:13 56 Kb78
Karnov (UK) (1988) (Disk 1 of 2) [t1].zip 2017-04-21 16:13 159 Kb97
Karnov (UK) (1988) (Disk 1 of 2) [t2].zip 2017-04-21 16:13 73 Kb81
Karnov (UK) (1988) (Disk 2 of 2).zip 2017-04-21 16:13 62 Kb89
Karnov (UK) (1988) (Disk 2 of 2) [a1].zip 2017-04-21 16:13 105 Kb91
Karnov (UK) (1988) (Disk 2 of 2) [t2].zip 2017-04-21 16:13 62 Kb91
Kat Trap (E).dsk 2017-04-21 16:13 91 Kb93
Kat Trap (UK) (1987).zip 2017-04-21 16:13 34 Kb95
Keep Yourself Alive (F) (1987).zip 2017-04-21 16:13 19 Kb95
Kenny Dalglish Soccer Manager (E).cdt 2017-04-21 16:13 57 Kb107
Kenny Dalglish Soccer Manager (UK) (1989).zip 2017-04-21 16:13 25 Kb89
Kenny Dalglish Soccer Match (UK) (1990).zip 2017-04-21 16:13 29 Kb89
Kentilla (UK) (1985).zip 2017-04-21 16:13 23 Kb94
Kentilla (UK) (1985) [a1].zip 2017-04-21 16:13 30 Kb94
Kentucky Racing (E).cdt 2017-04-21 16:13 45 Kb102
Kentucky Racing (UK) (1990).zip 2017-04-21 16:13 24 Kb87
Kentucky Racing (UK) (1990) [f1].zip 2017-04-21 16:13 24 Kb93
Kessia (F) (19xx).zip 2017-04-21 16:13 72 Kb88
Kettle (E).dsk 2017-04-21 16:13 193 Kb91
Kettle (UK) (1986).zip 2017-04-21 16:13 21 Kb96
Kevin Thacker's CPC Guide (UK) (19xx) (PD) (Disk 1 of 2).zip 2017-04-21 16:13 47 Kb82
Kevin Thacker's CPC Guide (UK) (19xx) (PD) (Disk 2 of 2).zip 2017-04-21 16:13 41 Kb86
Key Factor, The (UK) (1985).zip 2017-04-21 16:13 13 Kb94
Kick Off (UK,F,G,S,I) (1990).zip 2017-04-21 16:13 27 Kb90
Kick Off (UK,F,G,S,I) (1990) [a1].zip 2017-04-21 16:13 131 Kb88
Kick Off (UK,F,G,S,I) (1990) [a2].zip 2017-04-21 16:13 31 Kb81
Kick Off 2 (E) - Disk 1A.dsk 2017-04-21 16:13 178 Kb106
Kick Off 2 (E) - Disk 1B.dsk 2017-04-21 16:13 178 Kb96
Kick Off 2 (F) (1990).zip 2017-04-21 16:13 68 Kb88
Kick Off 2 (F) (1990) [a1].zip 2017-04-21 16:13 68 Kb94
Kikstart II (UK) (1988).zip 2017-04-21 16:13 24 Kb94
Kikstart II (UK) (1988) [a1].zip 2017-04-21 16:13 23 Kb97
Killapede (UK) (1986).zip 2017-04-21 16:13 26 Kb90
Killapede (UK) (1986) [a1].zip 2017-04-21 16:13 26 Kb91
Killapede (UK) (1986) [a2].zip 2017-04-21 16:13 32 Kb95
Killapede (UK) (1986) [a3].zip 2017-04-21 16:13 30 Kb93
Killed Until Dead (UK) (1987) (Disk 1 of 2).zip 2017-04-21 16:13 50 Kb85
Killed Until Dead (UK) (1987) (Disk 2 of 2).zip 2017-04-21 16:13 62 Kb85
Killer Ball (UK) (1991).zip 2017-04-21 16:14 103 Kb89
Killer Ball (UK) (1991) [a1].zip 2017-04-21 16:13 103 Kb90
Killer Ball (UK) (1991) [a2].zip 2017-04-21 16:13 76 Kb91
Killer Ball (UK) (1991) [a3].zip 2017-04-21 16:13 96 Kb84
Killer Cobra (E).cdt 2017-04-21 16:14 49 Kb92
Killer Cobra (UK) (1987).zip 2017-04-21 16:14 27 Kb89
Killer Cobra (UK) (1987) [a1].zip 2017-04-21 16:14 27 Kb94
Killer Cobra (UK) (1987) [a2].zip 2017-04-21 16:14 31 Kb89
Killer Gorilla & Knight Lore & Laserwarp & Molecule Man & Zaxx (F).zip 2017-04-21 16:14 82 Kb58
Killer Gorilla (UK) (1984).zip 2017-04-21 16:14 19 Kb93
Killer Gorilla (UK) (1984) [a1].zip 2017-04-21 16:14 19 Kb97
Killer Gorilla (UK) (1984) [a2].zip 2017-04-21 16:14 15 Kb97
Killer Gorilla (UK) (1984) [a3].zip 2017-04-21 16:14 18 Kb89
Killer Gorilla (UK) (1984) [b1].zip 2017-04-21 16:14 19 Kb93
Killer Gorilla (UK) (1984) [b2].zip 2017-04-21 16:14 19 Kb95
Killer Ring (UK) (1987).zip 2017-04-21 16:14 16 Kb98
Killer Ring (UK) (1987) [a1].zip 2017-04-21 16:14 16 Kb95
Kiloroid (UK) (19xx).zip 2017-04-21 16:14 2 Kb90
Kim (F) (1986).zip 2017-04-21 16:14 9 Kb89
Kinetic (UK) (1987).zip 2017-04-21 16:14 35 Kb91
Kinetic (UK) (1987) [a1].zip 2017-04-21 16:14 36 Kb89
Kinetic (UK) (1987) [a2].zip 2017-04-21 16:14 35 Kb98
Kinetik (E).dsk 2017-04-21 16:14 195 Kb106
Kingdom of Hamil (UK) (1987).zip 2017-04-21 16:14 57 Kb90
Kingdoms (UK) (1985).zip 2017-04-21 16:14 5 Kb90
Kit de Telechargement - Telecharge Amstrad CPC (F).dsk 2017-04-21 16:14 217 Kb101
Kit de Telechargement pour Amstrad CPC (F).dsk 2017-04-21 16:14 191 Kb110
Klax & Meynaumede (F) & Nervous Break Down (F) & Skweek.zip 2017-04-21 16:14 97 Kb60
Klax (E).dsk 2017-04-21 16:14 172 Kb95
Klax (UK) (1990) (CPM).zip 2017-04-21 16:14 44 Kb87
Klax (UK) (1990) (CPM) [a1].zip 2017-04-21 16:14 44 Kb97
Klax (UK) (1990) (CPM Version).zip 2017-04-21 16:14 43 Kb89
Klax (UK) (1990) (CPM Version) [a1].zip 2017-04-21 16:14 43 Kb90
Klax (UK) (1990) (Cart).zip 2017-04-21 16:14 41 Kb93
Klax (UK) (1990).zip 2017-04-21 16:14 42 Kb87
Klax (UK) (1990) [a1].zip 2017-04-21 16:14 42 Kb96
Klax (UK) (1990) [h1].zip 2017-04-21 16:14 52 Kb90
Klax (UK) (1990) [h2].zip 2017-04-21 16:14 54 Kb95
Knaves and thou Prisoners (UK) (19xx).zip 2017-04-21 16:14 8 Kb85
Knight Force (F) (1989) (Disk 1 of 2).zip 2017-04-21 16:14 54 Kb91
Knight Force (F) (1989) (Disk 1 of 2) [t1].zip 2017-04-21 16:14 55 Kb84
Knight Force (F) (1989) (Disk 1 of 2) [t2] & Power Drift.zip 2017-04-21 16:14 108 Kb53
Knight Force (F) (1989) (Disk 1 of 2) [t2].zip 2017-04-21 16:14 75 Kb84
Knight Force (F) (1989) (Disk 2 of 2).zip 2017-04-21 16:14 76 Kb89
Knight Force (F) - Disk 1A.dsk 2017-04-21 16:14 456 Kb93
Knight Force (F) - Disk 1B.dsk 2017-04-21 16:14 627 Kb97
Knight Games (E) - Side A.cdt 2017-04-21 16:14 166 Kb102
Knight Games (E) - Side B.cdt 2017-04-21 16:14 142 Kb89
Knight Games (UK) (1986) (Disk 1 of 2).zip 2017-04-21 16:14 88 Kb92
Knight Games (UK) (1986) (Disk 1 of 2) [a1].zip 2017-04-21 16:14 83 Kb83
Knight Games (UK) (1986) (Disk 1 of 2) [a2].zip 2017-04-21 16:14 83 Kb85
Knight Games (UK) (1986) (Disk 1 of 2) [a3].zip 2017-04-21 16:14 103 Kb79
Knight Games (UK) (1986) (Disk 2 of 2).zip 2017-04-21 16:14 94 Kb92
Knight Games (UK) (1986) (Disk 2 of 2) [a1].zip 2017-04-21 16:14 76 Kb85
Knight Games (UK) (1986) (Disk 2 of 2) [a2].zip 2017-04-21 16:14 79 Kb81
Knight Games (UK) (1986) (Disk 2 of 2) [a3].zip 2017-04-21 16:14 109 Kb84
Knight Games (UK) (1986) [f1][t1].zip 2017-04-21 16:14 179 Kb87
Knight Lore (E).cdt 2017-04-21 16:14 42 Kb93
Knight Lore (UK) (1984).zip 2017-04-21 16:14 25 Kb95
Knight Lore (UK) (1984) [a1].zip 2017-04-21 16:14 25 Kb96
Knight Lore (UK) (1984) [a2].zip 2017-04-21 16:14 25 Kb97
Knight Moves (F) (19xx) (Disk 1 of 2).zip 2017-04-21 16:14 60 Kb93
Knight Moves (F) (19xx) (Disk 2 of 2).zip 2017-04-21 16:14 83 Kb89
Knight Orc (E) - Disk 1A.dsk 2017-04-21 16:14 194 Kb97
Knight Orc (E) - Disk 1B.dsk 2017-04-21 16:14 199 Kb99
Knight Orc (UK) (1987) (Disk 1 of 2).zip 2017-04-21 16:14 119 Kb94
Knight Orc (UK) (1987) (Disk 2 of 2).zip 2017-04-21 16:14 110 Kb91
Knight Rider (E).cdt 2017-04-21 16:14 45 Kb99
Knight Rider (UK) (1986).zip 2017-04-21 16:14 20 Kb86
Knight Rider (UK) (1986) [h1].zip 2017-04-21 16:14 32 Kb93
Knight Rider (UK) (1986) [h2].zip 2017-04-21 16:14 21 Kb90
Knight Tyme (E).cdt 2017-04-21 16:14 57 Kb98
Knight Tyme (UK) (1986).zip 2017-04-21 16:14 31 Kb95
Knight Tyme (UK) (1986) [a1].zip 2017-04-21 16:14 31 Kb93
Knight Tyme (UK) (1986) [t1].zip 2017-04-21 16:14 31 Kb84
Knightmare (E).dsk 2017-04-21 16:14 213 Kb102
Knightmare (UK) (1987).zip 2017-04-21 16:14 29 Kb91
Knightmare (UK) (1987) [a1].zip 2017-04-21 16:14 30 Kb88
Knightmare (UK) (1987) [a2].zip 2017-04-21 16:14 30 Kb95
Knightmare (UK) (1987) [t1].zip 2017-04-21 16:14 33 Kb92
Know (G).dsk 2017-04-21 16:14 192 Kb110
Kobayashi Naru (UK) (19xx).zip 2017-04-21 16:14 31 Kb97
Kobayashi Naru (UK) (1987).zip 2017-04-21 16:14 31 Kb93
Kobayashi Naru (UK) (1987) [a1].zip 2017-04-21 16:14 31 Kb93
Kobayashi Naru (UK) (1987) [a2].zip 2017-04-21 16:14 48 Kb97
Kokotoni Wilf (UK) (19xx).zip 2017-04-21 16:14 137 Kb98
Kokotoni Wilf (UK) (19xx) [a1].zip 2017-04-21 16:14 35 Kb95
Kokotoni Wilf (UK) (19xx) [f1][t1].zip 2017-04-21 16:14 37 Kb87
Konami's Golf (UK) (1986).zip 2017-04-21 16:14 24 Kb88
Konami's Golf (UK) (1986) [a1].zip 2017-04-21 16:14 24 Kb91
Konami's Golf (UK) (1986) [a2].zip 2017-04-21 16:14 26 Kb92
Konami Coin-op Hits (UK) (19xx) (Disk 1 of 2).zip 2017-04-21 16:14 50 Kb87
Konami Coin-op Hits (UK) (19xx) (Disk 1 of 2) [a1].zip 2017-04-21 16:14 50 Kb83
Konami Coin-op Hits (UK) (19xx) (Disk 2 of 2).zip 2017-04-21 16:14 65 Kb86
Konami Coin-op Hits (UK) (19xx) (Disk 2 of 2) [a1].zip 2017-04-21 16:14 65 Kb90
Konami Coin-op Hits (UK) (19xx) (Disk 2 of 2) [a2].zip 2017-04-21 16:14 65 Kb87
Kong Strikes Back (UK) (1985).zip 2017-04-21 16:14 21 Kb99
Kong Strikes Back (UK) (1985) [a1].zip 2017-04-21 16:14 21 Kb96
Kong Strikes Back (UK) (1985) [a2].zip 2017-04-21 16:14 23 Kb91
Koronis Rift (E).dsk 2017-04-21 16:14 186 Kb101
Koronis Rift (UK) (1987).zip 2017-04-21 16:14 57 Kb94
Krakout (E).cdt 2017-04-21 16:14 64 Kb104
Krakout (E).dsk 2017-04-21 16:14 171 Kb100
Krakout (UK) (1987).zip 2017-04-21 16:14 31 Kb95
Krakout (UK) (1987) [h1].zip 2017-04-21 16:14 34 Kb91
Kristal (F).dsk 2017-04-21 16:14 191 Kb99
Kristal (UK) (1985).zip 2017-04-21 16:14 16 Kb95
Kristax (UK) (1989).zip 2017-04-21 16:14 9 Kb97
Krypton Factor (UK) (1987) (Disk 1 of 2).zip 2017-04-21 16:14 52 Kb88
Krypton Factor (UK) (1987) (Disk 1 of 2) [a1].zip 2017-04-21 16:14 47 Kb95
Krypton Factor (UK) (1987) (Disk 2 of 2).zip 2017-04-21 16:14 5 Kb90
Krypton Factor (UK) (1987) (Disk 2 of 2) [a1].zip 2017-04-21 16:14 21 Kb88
Kung-Fu (UK) (1986).zip 2017-04-21 16:14 19 Kb91
Kung-Fu Master (E).dsk 2017-04-21 16:14 191 Kb93
Kung-Fu Master (UK) (1986).zip 2017-04-21 16:14 28 Kb94
Kung-Fu Master (UK) (1986) [h1].zip 2017-04-21 16:14 22 Kb92
Kwah (UK) (1987).zip 2017-04-21 16:14 36 Kb83
Kwik Snax (E).cdt 2017-04-21 16:14 65 Kb107
Kwik Snax (UK) (1990).zip 2017-04-21 16:14 22 Kb87
Kwik Snax (UK) (1990) [f1].zip 2017-04-21 16:14 33 Kb101
Kwik Snax (UK) (1990) [h1].zip 2017-04-21 16:14 41 Kb94
Kwik Snax (UK) (1990) [t1].zip 2017-04-21 16:14 33 Kb91
kobayashi Naru (E).cdt 2017-04-21 16:14 74 Kb97
180 Files
-JavaCPC -demo -emu -j-cpc_ani -tools 0-9 A B C D E F G H I J K L M N O P Q R S T U V W X Y Z roms